Accueil
METAR-TAF:

METAR-TAF

Aéroports :

Trévise, Italie

latitude: 45-41N, longitude: 012-06E, altitude: 45 m

Observation

Le bulletin a été fait il y a 25 minutes, à 09:55 UTC
Vent 11 kt de est/sud-est
Température 10°C
Humidité 53%
Pression 1011 hPa
Visibilité 10 km ou plus
Quelques nuages à une hauteur de 10000 ft

METAR: LIPS 240955Z 11011KT 9999 FEW100 10/01 Q1011 RMK SCT SCT200 VIS MIN 9999 WIND THR26 08007KT WIND THR08 08010KT BLU

Heure: 11:20 (10:20 UTC)

Prévision

Le bulletin a été fait il y a 2 heures et 20 minutes, à 08:00 UTC
Prévision valable du 24 à 09 UTC au 24 à 18 UTC
Vent 10 kt de nord-est
Visibilité 10 km ou plus
Nuages épars à une hauteur de 4000 ft
Nuages fragmentés à une hauteur de 8000 ft
Temporairement
du 24 à 12 UTC au 24 à 18 UTC
Visibilité: 5000 m
Nuages fragmentés à une hauteur de 2000 ft
pluie, brume

TAF: LIPS 240800Z 2409/2418 05010KT 9999 SCT040 BKN080 TEMPO 2412/2418 5000 RA BR BKN020

Observations et prévisions météorologiques de plus de 4000 aéroports (messages METAR et TAF).

Les stations disponibles sont représentées par des disques jaunes et rouges sur la carte.

Passer la souris dessus pour voir le nom de la station.

Cliquer dessus pour voir les observations et prévisions météorologiques.

Pour changer de carte: cliquez sur les boutons verts avec une croix noire pour zoomer, sur le bouton vert avec un tiret pour effectuer un zoom arrière, ou sur les flèches vertes pour les cartes adjacentes.


METAR-TAF: